Time;durP1;ratioP1;P1;durP2;ratioP2;P2;SDS_P1;SDS_P2;PMS_P1;PMS_P2;Temp;Humidity;BMP_temperature;BMP_pressure;BME280_temperature;BME280_humidity;BME280_pressure;Samples;Min_cycle;Max_cycle;Signal;HPM_P1;HPM_P2
2023/07/24 00:00:10;;;;;;;6.75;2.17;;;;;;;17.52;100.00;100383.41;5069287;28;20544;-67
2023/07/24 00:02:36;;;;;;;3.63;2.42;;;;;;;17.51;100.00;100384.47;5068976;28;20039;-67
2023/07/24 00:05:01;;;;;;;3.63;2.28;;;;;;;17.51;100.00;100385.28;5069109;28;20368;-67
2023/07/24 00:07:26;;;;;;;3.42;1.92;;;;;;;17.51;100.00;100392.56;5068903;28;20083;-67
2023/07/24 00:09:52;;;;;;;6.57;2.22;;;;;;;17.48;100.00;100393.91;5069098;28;20101;-67
2023/07/24 00:12:17;;;;;;;3.92;2.33;;;;;;;17.46;100.00;100385.25;5068909;28;20035;-67
2023/07/24 00:14:43;;;;;;;2.67;1.95;;;;;;;17.46;100.00;100387.94;5068984;28;20031;-67
2023/07/24 00:17:08;;;;;;;6.10;2.30;;;;;;;17.46;100.00;100374.44;5068816;28;20117;-67
2023/07/24 00:19:33;;;;;;;3.35;1.98;;;;;;;17.47;100.00;100375.25;5068320;28;20532;-67
2023/07/24 00:21:59;;;;;;;4.78;2.25;;;;;;;17.47;100.00;100372.56;5068921;28;20426;-67
2023/07/24 00:24:24;;;;;;;5.38;2.33;;;;;;;17.47;100.00;100370.69;5068768;28;20371;-67
2023/07/24 00:26:49;;;;;;;4.38;2.17;;;;;;;17.48;100.00;100369.63;5067678;28;20077;-67
2023/07/24 00:29:15;;;;;;;3.78;2.40;;;;;;;17.49;100.00;100357.75;5068798;28;20056;-67
2023/07/24 00:31:40;;;;;;;5.30;2.28;;;;;;;17.49;100.00;100352.38;5069269;28;20032;-67
2023/07/24 00:34:05;;;;;;;3.83;2.55;;;;;;;17.50;100.00;100356.72;5068825;28;20046;-67
2023/07/24 00:36:31;;;;;;;5.03;2.53;;;;;;;17.50;100.00;100353.19;5068589;28;20079;-67
2023/07/24 00:38:56;;;;;;;3.55;2.22;;;;;;;17.48;100.00;100355.34;5068721;28;20028;-66
2023/07/24 00:41:22;;;;;;;5.25;2.22;;;;;;;17.49;100.00;100354.25;5068675;28;20043;-67
2023/07/24 00:43:47;;;;;;;5.50;2.40;;;;;;;17.48;100.00;100350.75;5068819;28;20232;-67
2023/07/24 00:46:13;;;;;;;5.50;2.55;;;;;;;17.45;100.00;100347.75;5068672;28;20060;-67
2023/07/24 00:48:39;;;;;;;4.70;2.53;;;;;;;17.47;100.00;100343.72;5068504;28;20037;-67
2023/07/24 00:51:05;;;;;;;5.15;2.53;;;;;;;17.46;100.00;100344.00;5068550;28;20032;-67
2023/07/24 00:53:30;;;;;;;4.18;2.40;;;;;;;17.45;100.00;100335.09;5068464;28;20490;-67
2023/07/24 00:55:56;;;;;;;3.50;2.25;;;;;;;17.44;100.00;100330.75;5068589;28;20037;-67
2023/07/24 00:58:22;;;;;;;4.95;3.25;;;;;;;17.41;100.00;100325.88;5068248;28;20056;-66
2023/07/24 01:00:48;;;;;;;5.93;3.00;;;;;;;17.41;100.00;100336.66;5068420;28;20406;-67
2023/07/24 01:03:14;;;;;;;4.70;2.75;;;;;;;17.40;100.00;100326.94;5068630;28;20043;-67
2023/07/24 01:05:40;;;;;;;6.82;2.67;;;;;;;17.40;100.00;100337.75;5068439;28;20028;-67
2023/07/24 01:08:06;;;;;;;6.97;2.97;;;;;;;17.40;100.00;100326.16;5068353;28;20024;-67
2023/07/24 01:10:32;;;;;;;6.72;2.25;;;;;;;17.40;100.00;100337.75;5050850;28;20042;-67
2023/07/24 01:13:08;;;;;;;5.45;2.90;;;;;;;17.40;100.00;100328.84;5068373;28;20032;-67
2023/07/24 01:16:03;;;;;;;7.72;3.08;;;;;;;17.41;100.00;100320.47;5068448;28;20017;-67
2023/07/24 01:18:30;;;;;;;5.80;2.53;;;;;;;17.39;100.00;100311.03;5067356;28;20083;-67
2023/07/24 01:20:57;;;;;;;5.57;2.83;;;;;;;17.36;100.00;100308.84;5068484;28;20032;-67
2023/07/24 01:23:37;;;;;;;8.15;2.92;;;;;;;17.37;100.00;100305.06;5068277;28;20355;-67
2023/07/24 01:26:03;;;;;;;4.72;2.60;;;;;;;17.34;100.00;100305.56;5068295;28;20074;-67
2023/07/24 01:28:29;;;;;;;5.93;3.53;;;;;;;17.35;100.00;100299.94;5068205;28;20315;-67
2023/07/24 01:30:55;;;;;;;4.90;2.83;;;;;;;17.37;100.00;100300.50;5069482;28;20434;-67
2023/07/24 01:33:22;;;;;;;6.07;2.80;;;;;;;17.31;100.00;100291.53;5071780;28;20059;-67
2023/07/24 01:35:57;;;;;;;5.32;2.78;;;;;;;17.36;100.00;100298.06;5071844;28;20020;-67
2023/07/24 01:38:26;;;;;;;8.90;4.13;;;;;;;17.35;100.00;100286.47;5071623;28;20107;-66
2023/07/24 01:40:53;;;;;;;6.47;2.55;;;;;;;17.36;100.00;100293.47;5071577;28;20028;-67
2023/07/24 01:43:19;;;;;;;7.20;2.88;;;;;;;17.36;100.00;100282.69;5071569;28;20074;-67
2023/07/24 01:45:44;;;;;;;6.28;3.45;;;;;;;17.36;100.00;100292.66;5071457;28;20032;-67
2023/07/24 01:48:10;;;;;;;5.50;2.80;;;;;;;17.37;100.00;100283.50;5071605;28;20029;-67
2023/07/24 01:50:35;;;;;;;8.23;4.00;;;;;;;17.39;100.00;100292.16;5071094;28;20035;-67
2023/07/24 01:53:00;;;;;;;7.28;3.17;;;;;;;17.39;100.00;100287.56;5071609;28;20036;-67
2023/07/24 01:55:26;;;;;;;7.25;3.75;;;;;;;17.39;100.00;100287.56;5071407;28;20033;-67
2023/07/24 01:57:51;;;;;;;6.35;3.53;;;;;;;17.37;100.00;100287.03;5071113;28;20140;-67
2023/07/24 02:00:17;;;;;;;8.05;3.70;;;;;;;17.31;100.00;100264.59;5069833;28;20480;-67
2023/07/24 02:02:42;;;;;;;6.63;3.28;;;;;;;17.32;100.00;100265.41;5071290;28;20028;-67
2023/07/24 02:05:08;;;;;;;6.18;3.05;;;;;;;17.31;100.00;100266.47;5071343;28;20383;-67
2023/07/24 02:07:33;;;;;;;6.88;3.60;;;;;;;17.29;100.00;100264.06;5071157;28;20033;-67
2023/07/24 02:09:58;;;;;;;5.43;2.85;;;;;;;17.29;100.00;100257.81;5071117;28;20111;-67
2023/07/24 02:12:24;;;;;;;6.80;2.70;;;;;;;17.29;100.00;100255.97;5070623;28;20119;-67
2023/07/24 02:14:51;;;;;;;6.30;3.03;;;;;;;17.30;100.00;100256.78;5070966;28;20079;-67
2023/07/24 02:17:17;;;;;;;4.72;2.60;;;;;;;17.28;100.00;100246.22;5071158;28;20120;-67
2023/07/24 02:19:42;;;;;;;6.63;3.30;;;;;;;17.29;100.00;100247.88;5070949;28;20032;-67
2023/07/24 02:22:08;;;;;;;5.57;3.33;;;;;;;17.29;100.00;100241.66;5070917;28;20040;-67
2023/07/24 02:24:33;;;;;;;6.32;3.65;;;;;;;17.30;100.00;100246.00;5071320;28;20032;-67
2023/07/24 02:27:00;;;;;;;8.48;3.50;;;;;;;17.33;100.00;100239.28;5070769;28;20109;-67
2023/07/24 02:29:25;;;;;;;6.40;3.08;;;;;;;17.30;100.00;100238.72;5070615;28;20037;-67
2023/07/24 02:31:51;;;;;;;6.82;3.58;;;;;;;17.31;100.00;100237.63;5070731;28;20372;-67
2023/07/24 02:34:16;;;;;;;8.90;3.45;;;;;;;17.34;100.00;100244.38;5070689;28;20020;-67
2023/07/24 02:36:41;;;;;;;5.05;2.55;;;;;;;17.35;100.00;100239.84;5070470;28;20037;-67
2023/07/24 02:39:07;;;;;;;8.57;3.55;;;;;;;17.34;100.00;100240.88;5070720;28;20035;-67
2023/07/24 02:41:32;;;;;;;6.18;3.15;;;;;;;17.37;100.00;100235.81;5070080;28;20483;-67
2023/07/24 02:43:58;;;;;;;5.57;3.05;;;;;;;17.37;100.00;100240.38;5070801;28;20123;-67
2023/07/24 02:46:24;;;;;;;4.35;2.70;;;;;;;17.36;100.00;100239.56;5070438;28;20028;-67
2023/07/24 02:48:50;;;;;;;4.75;2.72;;;;;;;17.37;100.00;100240.38;5070281;28;20082;-67
2023/07/24 02:51:16;;;;;;;5.55;2.75;;;;;;;17.37;100.00;100243.91;5070247;28;20039;-67
2023/07/24 02:53:41;;;;;;;4.10;2.90;;;;;;;17.37;100.00;100240.38;5070252;28;20575;-67
2023/07/24 02:56:07;;;;;;;4.55;2.97;;;;;;;17.38;100.00;100252.78;5070096;28;20422;-67
2023/07/24 02:58:32;;;;;;;5.25;3.35;;;;;;;17.33;100.00;100245.47;5069952;28;20076;-67
2023/07/24 03:01:06;;;;;;;5.07;2.97;;;;;;;17.30;100.00;100235.22;5070143;28;20399;-67
2023/07/24 03:03:32;;;;;;;5.20;2.97;;;;;;;17.25;100.00;100219.00;5070289;28;20227;-67
2023/07/24 03:05:58;;;;;;;4.88;3.10;;;;;;;17.21;100.00;100220.56;5070193;28;20158;-67
2023/07/24 03:08:23;;;;;;;8.18;3.70;;;;;;;17.18;100.00;100234.56;5069835;28;20119;-67
2023/07/24 03:10:48;;;;;;;4.78;3.00;;;;;;;17.17;100.00;100243.72;5070031;28;20484;-66
2023/07/24 03:13:14;;;;;;;8.00;4.03;;;;;;;17.15;100.00;100248.53;5069874;28;20017;-66
2023/07/24 03:15:39;;;;;;;5.85;3.35;;;;;;;17.14;100.00;100249.63;5069780;28;20032;-66
2023/07/24 03:18:04;;;;;;;6.03;3.25;;;;;;;17.11;100.00;100247.41;5069862;28;20060;-66
2023/07/24 03:20:30;;;;;;;5.50;2.88;;;;;;;17.11;100.00;100233.94;5069807;28;20028;-66
2023/07/24 03:22:55;;;;;;;5.30;2.90;;;;;;;17.08;100.00;100222.63;5069460;28;20044;-66
2023/07/24 03:25:21;;;;;;;8.43;3.47;;;;;;;17.06;100.00;100213.16;5069492;28;20028;-67
2023/07/24 03:27:46;;;;;;;6.70;3.58;;;;;;;17.04;100.00;100199.94;5069555;28;20028;-66
2023/07/24 03:30:11;;;;;;;6.97;3.05;;;;;;;17.04;100.00;100208.03;5069586;28;20463;-66
2023/07/24 03:32:37;;;;;;;6.97;3.60;;;;;;;16.97;100.00;100220.06;5069449;28;20035;-66
2023/07/24 03:35:04;;;;;;;4.75;3.42;;;;;;;16.96;100.00;100226.53;5069325;28;20074;-66
2023/07/24 03:37:30;;;;;;;5.53;3.00;;;;;;;16.92;100.00;100244.25;5069657;28;20028;-66
2023/07/24 03:39:55;;;;;;;4.40;2.97;;;;;;;16.83;100.00;100233.94;5069814;28;20090;-66
2023/07/24 03:42:29;;;;;;;4.53;2.90;;;;;;;16.72;100.00;100217.91;5069262;28;20115;-66
2023/07/24 03:44:55;;;;;;;4.70;3.17;;;;;;;16.59;100.00;100214.53;5069201;28;20482;-66
2023/07/24 03:47:21;;;;;;;6.28;2.63;;;;;;;16.52;100.00;100218.47;5069296;28;20421;-66
2023/07/24 03:49:47;;;;;;;7.47;2.95;;;;;;;16.49;100.00;100219.00;5069307;28;20073;-67
2023/07/24 03:52:12;;;;;;;4.55;2.45;;;;;;;16.44;100.00;100212.47;5069023;28;20111;-66
2023/07/24 03:54:37;;;;;;;5.28;2.35;;;;;;;16.42;100.00;100208.41;5068448;28;20677;-66
2023/07/24 03:57:03;;;;;;;11.20;3.25;;;;;;;16.38;100.00;100205.41;5068774;28;20048;-67
2023/07/24 03:59:29;;;;;;;4.20;2.55;;;;;;;16.43;100.00;100205.47;5067882;28;20039;-66
2023/07/24 04:01:55;;;;;;;6.70;3.67;;;;;;;16.42;100.00;100209.22;5069076;28;20438;-67
2023/07/24 04:04:20;;;;;;;5.32;2.92;;;;;;;16.40;100.00;100213.22;5069151;28;20028;-67
2023/07/24 04:06:46;;;;;;;4.93;2.80;;;;;;;16.39;100.00;100215.09;5069670;28;20044;-66
2023/07/24 04:09:14;;;;;;;4.05;3.05;;;;;;;16.36;100.00;100229.06;5069060;28;20078;-67
2023/07/24 04:11:40;;;;;;;5.35;2.92;;;;;;;16.37;100.00;100216.41;5069093;28;20390;-67
2023/07/24 04:14:05;;;;;;;5.07;2.80;;;;;;;16.39;100.00;100222.38;5069111;28;20036;-67
2023/07/24 04:16:30;;;;;;;6.57;3.05;;;;;;;16.40;100.00;100223.97;5068950;28;20024;-67
2023/07/24 04:18:56;;;;;;;6.38;3.17;;;;;;;16.40;100.00;100226.66;5068996;28;20056;-67
2023/07/24 04:21:22;;;;;;;6.28;3.08;;;;;;;16.42;100.00;100219.16;5068998;28;20479;-67
2023/07/24 04:23:47;;;;;;;7.05;3.38;;;;;;;16.40;100.00;100232.91;5068968;28;20055;-67
2023/07/24 04:26:13;;;;;;;5.70;3.03;;;;;;;16.43;100.00;100239.66;5068824;28;20025;-67
2023/07/24 04:28:38;;;;;;;4.80;2.90;;;;;;;16.45;100.00;100237.50;5067820;28;20216;-67
2023/07/24 04:31:03;;;;;;;5.20;3.10;;;;;;;16.41;100.00;100236.41;5068089;28;20035;-67
2023/07/24 04:33:29;;;;;;;7.70;3.60;;;;;;;16.39;100.00;100238.50;5067094;28;20031;-67
2023/07/24 04:35:55;;;;;;;6.60;3.55;;;;;;;16.37;100.00;100232.56;5068685;28;20028;-67
2023/07/24 04:38:21;;;;;;;5.60;3.28;;;;;;;16.37;100.00;100233.41;5067442;28;20115;-67
2023/07/24 04:40:46;;;;;;;5.13;3.13;;;;;;;16.34;100.00;100233.88;5068680;28;20123;-67
2023/07/24 04:43:12;;;;;;;6.35;3.28;;;;;;;16.33;100.00;100232.25;5068274;28;20115;-67
2023/07/24 04:45:37;;;;;;;7.40;3.17;;;;;;;16.31;100.00;100238.94;5066453;28;20055;-67
2023/07/24 04:48:03;;;;;;;5.15;3.13;;;;;;;16.30;100.00;100237.34;5068065;28;20460;-67
2023/07/24 04:50:29;;;;;;;5.95;3.17;;;;;;;16.29;100.00;100239.19;5068301;28;20040;-67
2023/07/24 04:52:54;;;;;;;7.00;3.47;;;;;;;16.26;100.00;100233.50;5068595;28;20036;-67
2023/07/24 04:55:20;;;;;;;6.80;3.80;;;;;;;16.28;100.00;100232.19;5068677;28;20043;-67
2023/07/24 04:57:46;;;;;;;7.53;3.75;;;;;;;16.26;100.00;100230.81;5068381;28;20056;-67
2023/07/24 05:00:11;;;;;;;7.25;3.53;;;;;;;16.19;100.00;100233.66;5068540;28;20059;-67
2023/07/24 05:02:37;;;;;;;9.38;4.35;;;;;;;16.16;100.00;100223.41;5068259;28;20509;-66
2023/07/24 05:05:02;;;;;;;6.80;4.00;;;;;;;16.11;100.00;100232.25;5070172;28;20144;-67
2023/07/24 05:07:28;;;;;;;6.43;3.60;;;;;;;16.11;100.00;100226.03;5072327;28;20116;-67
2023/07/24 05:09:53;;;;;;;6.28;3.60;;;;;;;16.09;100.00;100233.56;5071269;28;20369;-67
2023/07/24 05:12:18;;;;;;;7.40;4.03;;;;;;;16.05;100.00;100235.91;5072196;28;20487;-67
2023/07/24 05:14:44;;;;;;;6.07;3.65;;;;;;;16.03;100.00;100234.53;5072481;28;20490;-66
2023/07/24 05:17:09;;;;;;;9.88;4.07;;;;;;;16.05;100.00;100243.19;5072181;28;20433;-67
2023/07/24 05:19:34;;;;;;;7.30;3.55;;;;;;;16.05;100.00;100243.19;5072065;28;20159;-66
2023/07/24 05:21:59;;;;;;;5.85;3.22;;;;;;;16.05;100.00;100243.19;5072129;28;20131;-66
2023/07/24 05:24:25;;;;;;;7.47;3.67;;;;;;;16.06;100.00;100247.47;5072664;28;20043;-66
2023/07/24 05:26:50;;;;;;;5.82;3.40;;;;;;;16.08;100.00;100256.13;5071815;28;20056;-67
2023/07/24 05:29:15;;;;;;;6.50;3.67;;;;;;;16.09;100.00;100252.41;5072241;28;20032;-66
2023/07/24 05:31:41;;;;;;;6.40;3.80;;;;;;;16.13;100.00;100261.59;5070495;28;20025;-67
2023/07/24 05:34:06;;;;;;;7.28;3.95;;;;;;;16.14;100.00;100255.97;5071678;28;20035;-67
2023/07/24 05:36:31;;;;;;;7.10;3.88;;;;;;;16.16;100.00;100253.00;5070374;28;20028;-67
2023/07/24 05:38:57;;;;;;;7.05;3.60;;;;;;;16.22;100.00;100249.34;5071992;28;20024;-66
2023/07/24 05:41:23;;;;;;;5.63;3.63;;;;;;;16.25;100.00;100258.78;5071891;28;20958;-67
2023/07/24 05:43:48;;;;;;;8.82;4.05;;;;;;;16.24;100.00;100252.56;5071972;28;20028;-66
2023/07/24 05:46:14;;;;;;;5.63;3.88;;;;;;;16.25;100.00;100251.53;5071722;28;20425;-67
2023/07/24 05:48:39;;;;;;;6.30;3.70;;;;;;;16.24;100.00;100260.66;5071869;28;20029;-67
2023/07/24 05:51:04;;;;;;;9.60;3.92;;;;;;;16.27;100.00;100257.50;5071271;28;20131;-67
2023/07/24 05:53:30;;;;;;;7.95;3.70;;;;;;;16.31;100.00;100260.47;5071773;28;20068;-67
2023/07/24 05:56:00;;;;;;;7.90;4.38;;;;;;;16.35;100.00;100256.25;5070342;28;20040;-67
2023/07/24 05:58:26;;;;;;;5.82;3.25;;;;;;;16.38;100.00;100264.63;5071505;28;20085;-67
2023/07/24 06:00:51;;;;;;;7.63;3.95;;;;;;;16.40;100.00;100264.34;5070023;28;20037;-67
2023/07/24 06:03:16;;;;;;;4.57;2.85;;;;;;;16.48;100.00;100260.41;5071634;28;20064;-67
2023/07/24 06:05:42;;;;;;;8.40;3.90;;;;;;;16.49;100.00;100268.25;5071243;28;20028;-67
2023/07/24 06:08:08;;;;;;;9.00;4.35;;;;;;;16.50;100.00;100264.47;5071371;28;20067;-67
2023/07/24 06:10:34;;;;;;;8.90;4.55;;;;;;;16.52;100.00;100264.25;5071343;28;20028;-67
2023/07/24 06:12:59;;;;;;;8.55;4.75;;;;;;;16.55;100.00;100271.81;5071372;28;20382;-67
2023/07/24 06:15:25;;;;;;;10.70;5.50;;;;;;;16.56;100.00;100265.38;5071142;28;20086;-67
2023/07/24 06:17:50;;;;;;;10.18;4.95;;;;;;;16.58;100.00;100264.06;5070231;28;20033;-67
2023/07/24 06:20:16;;;;;;;9.48;5.15;;;;;;;16.63;100.00;100266.00;5071310;28;20032;-67
2023/07/24 06:22:41;;;;;;;12.07;5.82;;;;;;;16.71;100.00;100265.53;5070674;28;20376;-68
2023/07/24 06:25:07;;;;;;;11.82;5.78;;;;;;;16.79;100.00;100261.63;5068823;28;20043;-67
2023/07/24 06:27:32;;;;;;;11.88;6.20;;;;;;;16.84;100.00;100267.06;5068732;28;20047;-67
2023/07/24 06:29:57;;;;;;;16.05;7.10;;;;;;;16.90;100.00;100267.94;5070845;28;20457;-67
2023/07/24 06:32:23;;;;;;;10.82;6.20;;;;;;;16.92;100.00;100263.13;5069660;28;20067;-67
2023/07/24 06:34:48;;;;;;;15.13;7.38;;;;;;;16.96;100.00;100275.84;5070544;28;20041;-67
2023/07/24 06:37:14;;;;;;;13.45;6.03;;;;;;;16.95;100.00;100266.13;5069951;28;20024;-67
2023/07/24 06:39:39;;;;;;;11.82;6.00;;;;;;;16.98;100.00;100278.28;5070239;28;20392;-67
2023/07/24 06:42:04;;;;;;;11.68;5.60;;;;;;;17.04;100.00;100275.38;5070205;28;20040;-68
2023/07/24 06:44:30;;;;;;;12.90;5.65;;;;;;;17.27;100.00;100278.84;5070691;28;20344;-67
2023/07/24 06:46:55;;;;;;;9.70;4.68;;;;;;;17.36;100.00;100277.31;5070682;28;20033;-68
2023/07/24 06:49:20;;;;;;;8.82;5.10;;;;;;;17.46;100.00;100280.09;5070344;28;20132;-68
2023/07/24 06:51:46;;;;;;;11.65;5.85;;;;;;;17.49;100.00;100279.56;5070248;28;20472;-68
2023/07/24 06:54:11;;;;;;;11.90;5.15;;;;;;;17.52;100.00;100272.84;5068877;28;20063;-68
2023/07/24 06:56:36;;;;;;;12.98;4.85;;;;;;;17.47;100.00;100272.81;5070089;28;20111;-68
2023/07/24 06:59:02;;;;;;;13.80;6.72;;;;;;;17.42;100.00;100287.09;5070089;28;20511;-68
2023/07/24 07:01:28;;;;;;;11.32;5.55;;;;;;;17.28;100.00;100283.97;5070097;28;20386;-68
2023/07/24 07:03:53;;;;;;;16.77;6.80;;;;;;;17.22;100.00;100279.59;5070243;28;20037;-68
2023/07/24 07:06:18;;;;;;;13.50;6.57;;;;;;;17.22;100.00;100270.72;5070405;28;20028;-68
2023/07/24 07:08:44;;;;;;;12.98;6.57;;;;;;;17.24;100.00;100271.28;5069998;28;20043;-68
2023/07/24 07:11:09;;;;;;;14.38;6.97;;;;;;;17.26;100.00;100278.00;5070117;28;20031;-68
2023/07/24 07:13:35;;;;;;;15.13;7.85;;;;;;;17.28;100.00;100280.47;5069906;28;20036;-68
2023/07/24 07:16:00;;;;;;;13.35;5.88;;;;;;;17.23;100.00;100281.22;5070159;28;20112;-68
2023/07/24 07:18:26;;;;;;;21.70;7.70;;;;;;;17.20;100.00;100283.63;5069933;28;20036;-68
2023/07/24 07:20:53;;;;;;;16.30;8.25;;;;;;;17.17;100.00;100278.75;5069832;28;20162;-68
2023/07/24 07:23:19;;;;;;;11.15;6.68;;;;;;;17.15;100.00;100275.50;5069805;28;20036;-68
2023/07/24 07:25:45;;;;;;;16.50;7.50;;;;;;;17.12;100.00;100276.81;5069926;28;20117;-68
2023/07/24 07:28:14;;;;;;;13.60;7.00;;;;;;;17.11;100.00;100280.56;5069588;28;20066;-68
2023/07/24 07:30:40;;;;;;;12.95;6.70;;;;;;;17.13;100.00;100283.81;5069756;28;20036;-67
2023/07/24 07:33:06;;;;;;;13.25;6.22;;;;;;;17.13;100.00;100283.81;5069881;28;20028;-70
2023/07/24 07:35:32;;;;;;;14.25;6.78;;;;;;;17.09;100.00;100274.63;5069183;28;20649;-69
2023/07/24 07:37:58;;;;;;;14.48;6.80;;;;;;;17.12;100.00;100276.81;5067638;28;20123;-70
2023/07/24 07:40:23;;;;;;;13.52;6.32;;;;;;;17.16;100.00;100267.16;5069462;28;20111;-68
2023/07/24 07:42:49;;;;;;;14.32;7.13;;;;;;;17.09;100.00;100269.22;5069348;28;20020;-71
2023/07/24 07:45:14;;;;;;;14.25;6.85;;;;;;;17.05;100.00;100266.22;5068792;28;20503;-68
2023/07/24 07:47:40;;;;;;;13.52;7.00;;;;;;;17.03;100.00;100262.19;5069128;28;20037;-71
2023/07/24 07:50:05;;;;;;;9.20;5.82;;;;;;;17.06;100.00;100269.75;5069075;28;20040;-69
2023/07/24 07:52:31;;;;;;;8.13;4.70;;;;;;;17.07;100.00;100272.16;5069189;28;20085;-69
2023/07/24 07:54:56;;;;;;;7.63;3.67;;;;;;;17.06;100.00;100273.25;5069069;28;20363;-69
2023/07/24 07:57:21;;;;;;;6.10;2.67;;;;;;;17.14;100.00;100285.47;5067470;28;20059;-70
2023/07/24 07:59:48;;;;;;;5.35;2.88;;;;;;;17.22;100.00;100279.59;5069432;28;20277;-69
2023/07/24 08:02:13;;;;;;;8.05;3.78;;;;;;;17.34;100.00;100284.81;5069146;28;20491;-68
2023/07/24 08:04:39;;;;;;;6.05;2.42;;;;;;;17.49;100.00;100278.75;5068600;28;20078;-69
2023/07/24 08:07:04;;;;;;;6.15;3.35;;;;;;;17.68;100.00;100271.94;5068976;28;20025;-68
2023/07/24 08:09:29;;;;;;;4.72;2.72;;;;;;;17.77;100.00;100272.25;5069122;28;20028;-68
2023/07/24 08:11:55;;;;;;;6.57;2.58;;;;;;;17.73;100.00;100271.13;5067525;28;20157;-67
2023/07/24 08:14:20;;;;;;;5.43;3.20;;;;;;;17.65;100.00;100269.72;5068630;28;20032;-69
2023/07/24 08:16:49;;;;;;;5.53;2.58;;;;;;;17.68;100.00;100273.78;5068569;28;20127;-69
2023/07/24 08:19:14;;;;;;;8.15;3.38;;;;;;;17.66;100.00;100273.25;5068535;28;20103;-69
2023/07/24 08:21:40;;;;;;;6.28;3.42;;;;;;;17.74;100.00;100283.56;5067519;28;20119;-68
2023/07/24 08:24:06;;;;;;;7.82;3.30;;;;;;;18.67;100.00;100284.94;5068962;28;20620;-69
2023/07/24 08:26:31;;;;;;;4.30;2.53;;;;;;;19.14;100.00;100289.44;5068553;28;20025;-69
2023/07/24 08:28:57;;;;;;;6.95;3.28;;;;;;;18.90;100.00;100299.91;5068761;28;20021;-69
2023/07/24 08:31:22;;;;;;;8.30;3.75;;;;;;;18.63;100.00;100292.75;5068769;28;20029;-69
2023/07/24 08:33:48;;;;;;;8.88;4.22;;;;;;;18.47;100.00;100283.78;5068864;28;20085;-69
2023/07/24 08:36:13;;;;;;;7.85;4.25;;;;;;;18.36;100.00;100280.19;5067556;28;20045;-69
2023/07/24 08:38:40;;;;;;;9.88;4.63;;;;;;;18.44;100.00;100281.59;5068940;28;20094;-69
2023/07/24 08:41:11;;;;;;;7.63;4.03;;;;;;;18.51;100.00;100284.06;5072242;28;20128;-68
2023/07/24 08:43:38;;;;;;;8.73;4.93;;;;;;;18.48;100.00;100288.09;5072989;28;20421;-68
2023/07/24 08:46:05;;;;;;;11.52;5.80;;;;;;;18.47;100.00;100278.38;5072663;28;20839;-68
2023/07/24 08:48:35;;;;;;;9.07;4.97;;;;;;;18.66;100.00;100284.13;5073130;28;20025;-68
2023/07/24 08:51:02;;;;;;;9.02;5.35;;;;;;;18.75;100.00;100274.44;5072715;28;20150;-68
2023/07/24 08:53:29;;;;;;;9.45;5.65;;;;;;;18.80;100.00;100268.25;5072758;28;20040;-69
2023/07/24 08:55:56;;;;;;;10.32;5.95;;;;;;;18.85;100.00;100262.06;5072539;28;20024;-68
2023/07/24 08:58:22;;;;;;;10.70;6.28;;;;;;;18.76;100.00;100267.19;5072270;28;20134;-69
2023/07/24 09:00:47;;;;;;;10.25;5.78;;;;;;;18.55;100.00;100274.38;5072493;28;20984;-69
2023/07/24 09:03:13;;;;;;;10.07;5.90;;;;;;;18.34;100.00;100270.75;5072553;28;20028;-68
2023/07/24 09:05:38;;;;;;;10.73;6.15;;;;;;;18.24;100.00;100252.63;5072702;28;20025;-68
2023/07/24 09:08:04;;;;;;;12.35;5.70;;;;;;;18.22;100.00;100262.84;5072526;28;20492;-68
2023/07/24 09:10:29;;;;;;;11.93;6.65;;;;;;;18.18;100.00;100259.03;5072392;28;20110;-68
2023/07/24 09:12:55;;;;;;;12.43;6.82;;;;;;;18.22;100.00;100262.03;5071087;28;20103;-68
2023/07/24 09:15:20;;;;;;;12.38;7.07;;;;;;;18.24;100.00;100259.91;5072160;28;20032;-68
2023/07/24 09:17:50;;;;;;;12.90;6.38;;;;;;;18.32;100.00;100246.72;5072324;28;20097;-68
2023/07/24 09:20:16;;;;;;;12.93;6.93;;;;;;;18.29;100.00;100243.72;5072221;28;20039;-68
2023/07/24 09:22:52;;;;;;;12.65;7.20;;;;;;;18.24;100.00;100238.31;5072166;28;20036;-68
2023/07/24 09:25:17;;;;;;;12.57;6.82;;;;;;;18.15;100.00;100222.59;5072196;28;20067;-68
2023/07/24 09:27:44;;;;;;;10.00;6.13;;;;;;;18.42;100.00;100228.91;5072164;28;20063;-68
2023/07/24 09:30:15;;;;;;;10.55;6.80;;;;;;;18.87;100.00;100222.09;5072055;28;20039;-68
2023/07/24 09:32:41;;;;;;;12.00;6.07;;;;;;;19.21;100.00;100223.22;5072179;28;20046;-68
2023/07/24 09:35:18;;;;;;;9.85;6.07;;;;;;;19.43;100.00;100216.72;5070584;28;20033;-68
2023/07/24 09:37:43;;;;;;;12.07;7.40;;;;;;;19.60;100.00;100201.03;5071654;28;20107;-69
2023/07/24 09:40:10;;;;;;;8.63;5.05;;;;;;;19.55;100.00;100206.44;5071923;28;20041;-68
2023/07/24 09:42:36;;;;;;;11.95;6.18;;;;;;;19.35;100.00;100203.75;5071703;28;20428;-68
2023/07/24 09:45:03;;;;;;;11.85;5.90;;;;;;;19.22;100.00;100207.78;5071630;28;20427;-68
2023/07/24 09:47:29;;;;;;;9.15;5.53;;;;;;;19.14;100.00;100205.63;5071683;28;20024;-68
2023/07/24 09:49:55;;;;;;;8.95;5.30;;;;;;;19.10;100.00;100207.22;5071509;28;20037;-69
2023/07/24 09:52:21;;;;;;;8.02;5.10;;;;;;;19.02;100.00;100198.59;5070053;28;20029;-68
2023/07/24 09:54:56;;;;;;;8.27;5.18;;;;;;;19.02;100.00;100187.78;5071362;28;20040;-68
2023/07/24 09:57:23;;;;;;;9.32;4.60;;;;;;;18.90;100.00;100172.91;5071412;28;20045;-68
2023/07/24 09:59:51;;;;;;;8.40;4.43;;;;;;;18.85;100.00;100171.00;5069944;28;20020;-68
2023/07/24 10:02:17;;;;;;;9.02;4.65;;;;;;;18.74;100.00;100177.44;5071126;28;20127;-68
2023/07/24 10:04:44;;;;;;;6.88;4.15;;;;;;;18.67;100.00;100175.00;5071102;28;20444;-68
2023/07/24 10:07:10;;;;;;;6.93;4.35;;;;;;;18.65;100.00;100184.44;5071438;28;20028;-68
2023/07/24 10:09:36;;;;;;;8.13;4.10;;;;;;;18.57;100.00;100181.16;5071339;28;20040;-68
2023/07/24 10:12:02;;;;;;;8.27;4.03;;;;;;;18.49;100.00;100167.38;5071345;28;20017;-68
2023/07/24 10:14:29;;;;;;;7.30;4.22;;;;;;;18.48;100.00;100174.69;5070976;28;20028;-68
2023/07/24 10:16:56;;;;;;;10.20;4.57;;;;;;;18.41;100.00;100182.22;5071210;28;20033;-68
2023/07/24 10:19:21;;;;;;;7.03;4.07;;;;;;;18.34;100.00;100185.16;5071208;28;20032;-68
2023/07/24 10:21:48;;;;;;;8.30;4.03;;;;;;;18.28;100.00;100188.91;5070991;28;20032;-68
2023/07/24 10:24:17;;;;;;;5.38;3.70;;;;;;;18.24;100.00;100205.91;5070720;28;20037;-68
2023/07/24 10:26:43;;;;;;;7.20;3.53;;;;;;;18.23;100.00;100207.78;5071028;28;20593;-68
2023/07/24 10:29:12;;;;;;;4.07;3.22;;;;;;;18.16;100.00;100212.63;5070864;28;20041;-68
2023/07/24 10:31:38;;;;;;;6.30;3.60;;;;;;;18.15;100.00;100227.19;5053185;28;20033;-68
2023/07/24 10:34:05;;;;;;;8.68;4.18;;;;;;;18.12;100.00;100227.72;5070684;28;20028;-68
2023/07/24 10:36:35;;;;;;;5.15;3.20;;;;;;;18.05;100.00;100219.88;5070595;28;20432;-68
2023/07/24 10:39:04;;;;;;;5.03;2.95;;;;;;;17.95;100.00;100220.59;5070478;28;20056;-68
2023/07/24 10:41:36;;;;;;;5.75;3.83;;;;;;;17.92;100.00;100212.22;5070440;28;20097;-68
2023/07/24 10:44:02;;;;;;;6.75;3.03;;;;;;;17.88;100.00;100208.41;5070520;28;20558;-68
2023/07/24 10:46:39;;;;;;;7.53;4.18;;;;;;;17.90;100.00;100207.09;5070441;28;20128;-68
2023/07/24 10:49:04;;;;;;;4.60;3.20;;;;;;;17.93;100.00;100211.16;5070679;28;20024;-68
2023/07/24 10:51:33;;;;;;;6.97;3.50;;;;;;;18.00;100.00;100217.13;5070325;28;20032;-68
2023/07/24 10:53:59;;;;;;;6.60;3.78;;;;;;;18.07;100.00;100225.78;5070686;28;20036;-68
2023/07/24 10:56:25;;;;;;;6.50;3.53;;;;;;;18.14;100.00;100239.88;5070253;28;20037;-69
2023/07/24 10:58:50;;;;;;;5.60;3.70;;;;;;;18.14;100.00;100241.75;5070245;28;20124;-68
2023/07/24 11:01:18;;;;;;;8.82;5.05;;;;;;;18.15;100.00;100237.97;5069723;28;20444;-68
2023/07/24 11:03:44;;;;;;;6.55;3.85;;;;;;;18.17;100.00;100233.94;5069745;28;20025;-69
2023/07/24 11:06:15;;;;;;;5.13;3.42;;;;;;;18.24;100.00;100239.13;5070073;28;20111;-69
2023/07/24 11:08:40;;;;;;;6.28;3.80;;;;;;;18.32;100.00;100229.72;5070289;28;20074;-69